首页
METAR-TAF:

METAR-TAF

机场 :

蒙哥馬利地方機場

蒙哥马利, 阿拉巴马州, 美国

纬度: 32-18-01N, 经度: 086-24-22W, 海拔: 67米

当前天气观测

该预报发布于10分钟前的10:53 UTC
风速7节,风向东北
温度 23°C
湿度 89%
气压 1014 hPa
能見度: 16.1公里
阴天层高于5500英尺
小雨

METAR: KMGM 261053Z 05007KT 10SM -RA OVC055 23/21 A2995 RMK AO2 SLP139 P0001 T02280211

时间: 06:03 (11:03 UTC)

预报

该预报发布于5小时和43分钟前的05:20 UTC
预报有效从26日的 06点(UTC)到 27日的 06点(UTC)
风速7节,风向
能見度: 10公里
多云层高于12000英尺
附近有阵雨
从 26日的 1200点(UTC)
风速10节,风向
能見度: 10公里
阴天层高于2700英尺
从 26日的 1400点(UTC)
风速10节,风向,有时为18节阵风
能見度: 10公里
阴天层高于2400英尺
几率 30%
从 26日的 15点(UTC)到 26日的 18点(UTC)
能見度: 6.4公里
阴天层高于800英尺
阵雨
从 26日的 1800点(UTC)
风速12节,风向
能見度: 8.0公里
阴天层高于3000英尺
阵雨
从 26日的 2100点(UTC)
风速11节,风向,有时为20节阵风
能見度: 9.7公里
阴天层高于2600英尺
阵雨
从 27日的 0000点(UTC)
风速11节,风向
能見度: 10公里
多云层高于2800英尺
几率 30%
从 27日的 00点(UTC)到 27日的 06点(UTC)
能見度: 6.4公里
阵雨

TAF: KMGM 260520Z 2606/2706 09007KT P6SM VCSH BKN120 FM261200 08010KT P6SM OVC027 FM261400 09010G18KT P6SM OVC024 PROB30 2615/2618 4SM SHRA OVC008 FM261800 09012KT 5SM SHRA OVC030 FM262100 08011G20KT 6SM SHRA OVC026 FM270000 09011KT P6SM BKN028 PROB30 2700/2706 4SM SHRA

超过4000个机场的气象观测和天气预报(METAR&TAF报告)。

可查询的气象台以黄色和红色小点在地图上表示。

将鼠标移到小点上方,可查看气象台名称。

然后点击查看天气观测和预报。

如需切换地图:点击带黑十字的绿色按钮放大地图;点击带横线的绿色按钮缩小地图;或者点击绿色箭头查看邻近地区的地图。


METAR-TAF: